KGZH

Evergreen Regional / Middleton Field Airport

Evergreen, Alabama, USA
METAR KGZH 212253Z AUTO 19009KT 10SM BKN038 BKN050 BKN065 30/25 A3001 RMK AO2 SLP158 T03000250
Observed Flight Rules
Aug-21 @ 22:53 UTC (54 minutes ago) Visual Flight Rules
Wind Visibility Clouds
190° at 9 knots 10 miles
  • Broken at 3,800' AGL
  • Broken at 5,000' AGL
  • Broken at 6,500' AGL
Temperatures Readings
Current 30°C / 86°F
Dewpoint 25°C / 77°F
Humidity 75%
Altimeter 30.01" Hg
Pressure 1015.8 hPa
Elevation 78
METAR KGZH 212253Z AUTO 19009KT 10SM BKN038 BKN050 BKN065 30/25 A3001 RMK AO2 SLP158 T03000250
Observed Flight Rules
Aug-21 @ 22:53 UTC
(54 minutes ago)
VFR
Wind Visibility
190° at 9 knots 10 miles
Clouds
  • Broken at 3,800' AGL
  • Broken at 5,000' AGL
  • Broken at 6,500' AGL
Temperature Dewpoint
30°C / 86°F 25°C / 77°F
Humidity Altimeter Pressure
75% 30.01" Hg 1015.8 hPa